KCOT/COT METAR and TAF weather

Enter ICAO airport designator
Station Type Date Time Source
KCOT METAR 2019/12/13 13:53 UTC NOAA

KCOT 131353Z AUTO 00000KT 8SM CLR 04/04 A3002 RMK AO2 SLP163 T00440039


Station Type Date Time Source
KCOT Decoded METAR 2019/12/13 13:53 UTC NOAA

COTULLA-LASALLE COUNTY AIRPORT , TX, United States (KCOT) 28-27N 099-13W 140M
Dec 13, 2019 - 08:53 AM EST / 2019.12.13 1353 UTC
Wind: Calm:0
Visibility: 8 mile(s):0
Sky conditions: clear
Temperature: 39.9 F (4.4 C)
Dew Point: 39.0 F (3.9 C)
Relative Humidity: 96%
Pressure (altimeter): 30.02 in. Hg (1016 hPa)
ob: KCOT 131353Z AUTO 00000KT 8SM CLR 04/04 A3002 RMK AO2 SLP163 T00440039
cycle: 14

Station Type Date Time Source
KCOT TAF 2019/12/13 12:30 UTC NOAA

TAF KCOT 131127Z 1312/1412 29004KT P6SM FEW250
FM131800 30012KT P6SM FEW250

Example: see airport list